sensor_id;sensor_type;location;lat;lon;timestamp;P1;durP1;ratioP1;P2;durP2;ratioP2
23121;SDS011;11730;51.248;22.534;2024-01-27T00:00:00;32.70;;;17.65;;
23121;SDS011;11730;51.248;22.534;2024-01-27T00:02:28;17.88;;;10.82;;
23121;SDS011;11730;51.248;22.534;2024-01-27T00:04:55;32.38;;;17.42;;
23121;SDS011;11730;51.248;22.534;2024-01-27T00:07:22;29.95;;;16.83;;
23121;SDS011;11730;51.248;22.534;2024-01-27T00:09:51;32.75;;;16.92;;
23121;SDS011;11730;51.248;22.534;2024-01-27T00:12:18;31.70;;;18.13;;
23121;SDS011;11730;51.248;22.534;2024-01-27T00:14:45;37.20;;;19.13;;
23121;SDS011;11730;51.248;22.534;2024-01-27T00:17:12;32.63;;;17.95;;
23121;SDS011;11730;51.248;22.534;2024-01-27T00:19:39;28.85;;;13.27;;
23121;SDS011;11730;51.248;22.534;2024-01-27T00:22:07;35.63;;;18.88;;
23121;SDS011;11730;51.248;22.534;2024-01-27T00:24:34;33.60;;;18.10;;
23121;SDS011;11730;51.248;22.534;2024-01-27T00:27:02;34.75;;;17.98;;
23121;SDS011;11730;51.248;22.534;2024-01-27T00:29:30;33.25;;;16.95;;
23121;SDS011;11730;51.248;22.534;2024-01-27T00:31:57;31.75;;;16.58;;
23121;SDS011;11730;51.248;22.534;2024-01-27T00:34:24;31.75;;;18.73;;
23121;SDS011;11730;51.248;22.534;2024-01-27T00:36:51;34.63;;;18.90;;
23121;SDS011;11730;51.248;22.534;2024-01-27T00:39:19;33.90;;;18.73;;
23121;SDS011;11730;51.248;22.534;2024-01-27T00:41:47;31.38;;;17.08;;
23121;SDS011;11730;51.248;22.534;2024-01-27T00:44:14;32.50;;;17.67;;
23121;SDS011;11730;51.248;22.534;2024-01-27T00:46:41;30.55;;;17.58;;
23121;SDS011;11730;51.248;22.534;2024-01-27T00:49:08;29.63;;;17.35;;
23121;SDS011;11730;51.248;22.534;2024-01-27T00:51:35;29.77;;;17.95;;
23121;SDS011;11730;51.248;22.534;2024-01-27T00:54:03;31.58;;;17.25;;
23121;SDS011;11730;51.248;22.534;2024-01-27T00:56:30;31.42;;;17.77;;
23121;SDS011;11730;51.248;22.534;2024-01-27T00:58:57;32.17;;;17.40;;
23121;SDS011;11730;51.248;22.534;2024-01-27T01:01:23;30.42;;;17.27;;
23121;SDS011;11730;51.248;22.534;2024-01-27T01:03:51;28.58;;;16.30;;
23121;SDS011;11730;51.248;22.534;2024-01-27T01:06:19;28.13;;;17.08;;
23121;SDS011;11730;51.248;22.534;2024-01-27T01:08:46;30.23;;;17.48;;
23121;SDS011;11730;51.248;22.534;2024-01-27T01:11:14;31.20;;;17.95;;
23121;SDS011;11730;51.248;22.534;2024-01-27T01:13:41;29.52;;;15.32;;
23121;SDS011;11730;51.248;22.534;2024-01-27T01:16:08;28.05;;;16.63;;
23121;SDS011;11730;51.248;22.534;2024-01-27T01:18:35;33.08;;;16.27;;
23121;SDS011;11730;51.248;22.534;2024-01-27T01:21:03;30.75;;;17.15;;
23121;SDS011;11730;51.248;22.534;2024-01-27T01:23:30;30.42;;;17.27;;
23121;SDS011;11730;51.248;22.534;2024-01-27T01:25:57;29.38;;;15.93;;
23121;SDS011;11730;51.248;22.534;2024-01-27T01:28:25;30.52;;;16.80;;
23121;SDS011;11730;51.248;22.534;2024-01-27T01:30:52;28.13;;;16.10;;
23121;SDS011;11730;51.248;22.534;2024-01-27T01:33:19;35.42;;;17.67;;
23121;SDS011;11730;51.248;22.534;2024-01-27T01:35:46;33.42;;;18.67;;
23121;SDS011;11730;51.248;22.534;2024-01-27T01:38:14;34.45;;;19.15;;
23121;SDS011;11730;51.248;22.534;2024-01-27T01:40:41;30.08;;;16.52;;
23121;SDS011;11730;51.248;22.534;2024-01-27T01:43:09;28.33;;;16.45;;
23121;SDS011;11730;51.248;22.534;2024-01-27T01:45:37;26.40;;;16.35;;
23121;SDS011;11730;51.248;22.534;2024-01-27T01:48:05;34.75;;;16.75;;
23121;SDS011;11730;51.248;22.534;2024-01-27T01:50:33;32.88;;;17.10;;
23121;SDS011;11730;51.248;22.534;2024-01-27T01:53:01;27.67;;;16.15;;
23121;SDS011;11730;51.248;22.534;2024-01-27T01:55:28;32.35;;;17.38;;
23121;SDS011;11730;51.248;22.534;2024-01-27T01:57:55;36.75;;;19.02;;
23121;SDS011;11730;51.248;22.534;2024-01-27T02:00:23;33.15;;;17.90;;
23121;SDS011;11730;51.248;22.534;2024-01-27T02:02:50;33.42;;;17.33;;
23121;SDS011;11730;51.248;22.534;2024-01-27T02:05:17;44.00;;;17.90;;
23121;SDS011;11730;51.248;22.534;2024-01-27T02:07:44;31.65;;;17.65;;
23121;SDS011;11730;51.248;22.534;2024-01-27T02:10:15;29.42;;;16.63;;
23121;SDS011;11730;51.248;22.534;2024-01-27T02:12:45;26.00;;;15.00;;
23121;SDS011;11730;51.248;22.534;2024-01-27T02:15:13;24.48;;;14.07;;
23121;SDS011;11730;51.248;22.534;2024-01-27T02:17:41;25.85;;;12.23;;
23121;SDS011;11730;51.248;22.534;2024-01-27T02:20:08;23.23;;;12.40;;
23121;SDS011;11730;51.248;22.534;2024-01-27T02:22:36;23.67;;;12.25;;
23121;SDS011;11730;51.248;22.534;2024-01-27T02:25:03;20.60;;;11.05;;
23121;SDS011;11730;51.248;22.534;2024-01-27T02:27:31;24.80;;;11.50;;
23121;SDS011;11730;51.248;22.534;2024-01-27T02:29:58;20.98;;;10.02;;
23121;SDS011;11730;51.248;22.534;2024-01-27T02:32:25;25.92;;;9.48;;
23121;SDS011;11730;51.248;22.534;2024-01-27T02:34:53;17.65;;;9.40;;
23121;SDS011;11730;51.248;22.534;2024-01-27T02:37:20;14.82;;;8.27;;
23121;SDS011;11730;51.248;22.534;2024-01-27T02:39:46;19.35;;;8.75;;
23121;SDS011;11730;51.248;22.534;2024-01-27T02:42:14;20.38;;;7.95;;
23121;SDS011;11730;51.248;22.534;2024-01-27T02:44:41;19.17;;;8.20;;
23121;SDS011;11730;51.248;22.534;2024-01-27T02:47:08;15.95;;;7.95;;
23121;SDS011;11730;51.248;22.534;2024-01-27T02:49:36;16.20;;;8.30;;
23121;SDS011;11730;51.248;22.534;2024-01-27T02:52:03;14.93;;;8.65;;
23121;SDS011;11730;51.248;22.534;2024-01-27T02:54:31;15.50;;;8.77;;
23121;SDS011;11730;51.248;22.534;2024-01-27T02:56:58;13.27;;;8.65;;
23121;SDS011;11730;51.248;22.534;2024-01-27T02:59:25;19.98;;;6.82;;
23121;SDS011;11730;51.248;22.534;2024-01-27T03:01:52;14.43;;;7.38;;
23121;SDS011;11730;51.248;22.534;2024-01-27T03:04:20;13.18;;;5.78;;
23121;SDS011;11730;51.248;22.534;2024-01-27T03:06:47;15.07;;;7.25;;
23121;SDS011;11730;51.248;22.534;2024-01-27T03:09:15;12.65;;;6.95;;
23121;SDS011;11730;51.248;22.534;2024-01-27T03:11:42;14.70;;;7.50;;
23121;SDS011;11730;51.248;22.534;2024-01-27T03:14:09;22.25;;;8.23;;
23121;SDS011;11730;51.248;22.534;2024-01-27T03:16:37;16.77;;;6.80;;
23121;SDS011;11730;51.248;22.534;2024-01-27T03:19:04;10.60;;;5.15;;
23121;SDS011;11730;51.248;22.534;2024-01-27T03:21:33;17.40;;;5.95;;
23121;SDS011;11730;51.248;22.534;2024-01-27T03:24:00;11.52;;;5.97;;
23121;SDS011;11730;51.248;22.534;2024-01-27T03:26:28;13.20;;;5.80;;
23121;SDS011;11730;51.248;22.534;2024-01-27T03:28:55;17.42;;;6.30;;
23121;SDS011;11730;51.248;22.534;2024-01-27T03:31:23;12.75;;;6.05;;
23121;SDS011;11730;51.248;22.534;2024-01-27T03:33:50;26.73;;;5.93;;
23121;SDS011;11730;51.248;22.534;2024-01-27T03:36:17;19.95;;;7.85;;
23121;SDS011;11730;51.248;22.534;2024-01-27T03:38:45;14.52;;;7.03;;
23121;SDS011;11730;51.248;22.534;2024-01-27T03:41:12;14.75;;;7.22;;
23121;SDS011;11730;51.248;22.534;2024-01-27T03:43:39;14.98;;;5.15;;
23121;SDS011;11730;51.248;22.534;2024-01-27T03:46:06;13.85;;;5.70;;
23121;SDS011;11730;51.248;22.534;2024-01-27T03:48:33;15.68;;;6.82;;
23121;SDS011;11730;51.248;22.534;2024-01-27T03:51:02;11.95;;;3.35;;
23121;SDS011;11730;51.248;22.534;2024-01-27T03:53:29;14.50;;;3.75;;
23121;SDS011;11730;51.248;22.534;2024-01-27T03:55:56;4.75;;;3.10;;
23121;SDS011;11730;51.248;22.534;2024-01-27T03:58:32;10.15;;;3.15;;
23121;SDS011;11730;51.248;22.534;2024-01-27T04:01:00;16.13;;;3.78;;
23121;SDS011;11730;51.248;22.534;2024-01-27T04:03:27;8.25;;;2.83;;
23121;SDS011;11730;51.248;22.534;2024-01-27T04:05:54;7.50;;;3.33;;
23121;SDS011;11730;51.248;22.534;2024-01-27T04:08:22;8.13;;;3.28;;
23121;SDS011;11730;51.248;22.534;2024-01-27T04:10:49;11.13;;;3.35;;
23121;SDS011;11730;51.248;22.534;2024-01-27T04:13:16;10.23;;;3.67;;
23121;SDS011;11730;51.248;22.534;2024-01-27T04:15:43;8.60;;;3.47;;
23121;SDS011;11730;51.248;22.534;2024-01-27T04:18:10;7.63;;;3.30;;
23121;SDS011;11730;51.248;22.534;2024-01-27T04:20:38;9.95;;;3.53;;
23121;SDS011;11730;51.248;22.534;2024-01-27T04:23:05;12.18;;;3.85;;
23121;SDS011;11730;51.248;22.534;2024-01-27T04:25:32;13.70;;;3.65;;
23121;SDS011;11730;51.248;22.534;2024-01-27T04:27:59;11.15;;;2.65;;
23121;SDS011;11730;51.248;22.534;2024-01-27T04:30:27;16.95;;;4.57;;
23121;SDS011;11730;51.248;22.534;2024-01-27T04:32:54;13.30;;;3.40;;
23121;SDS011;11730;51.248;22.534;2024-01-27T04:35:21;14.18;;;3.97;;
23121;SDS011;11730;51.248;22.534;2024-01-27T04:37:48;10.50;;;3.13;;
23121;SDS011;11730;51.248;22.534;2024-01-27T04:40:15;14.18;;;3.22;;
23121;SDS011;11730;51.248;22.534;2024-01-27T04:42:42;12.85;;;3.55;;
23121;SDS011;11730;51.248;22.534;2024-01-27T04:45:10;9.70;;;3.30;;
23121;SDS011;11730;51.248;22.534;2024-01-27T04:47:37;14.10;;;3.47;;
23121;SDS011;11730;51.248;22.534;2024-01-27T04:50:05;11.63;;;3.63;;
23121;SDS011;11730;51.248;22.534;2024-01-27T04:52:32;13.65;;;4.10;;
23121;SDS011;11730;51.248;22.534;2024-01-27T04:54:59;12.27;;;3.97;;
23121;SDS011;11730;51.248;22.534;2024-01-27T04:57:26;12.95;;;3.72;;
23121;SDS011;11730;51.248;22.534;2024-01-27T04:59:54;9.85;;;2.90;;
23121;SDS011;11730;51.248;22.534;2024-01-27T05:02:21;12.98;;;3.58;;
23121;SDS011;11730;51.248;22.534;2024-01-27T05:04:48;12.38;;;3.63;;
23121;SDS011;11730;51.248;22.534;2024-01-27T05:07:16;10.13;;;3.78;;
23121;SDS011;11730;51.248;22.534;2024-01-27T05:09:43;9.93;;;3.50;;
23121;SDS011;11730;51.248;22.534;2024-01-27T05:12:10;14.88;;;3.83;;
23121;SDS011;11730;51.248;22.534;2024-01-27T05:14:37;9.70;;;3.63;;
23121;SDS011;11730;51.248;22.534;2024-01-27T05:17:10;15.50;;;5.53;;
23121;SDS011;11730;51.248;22.534;2024-01-27T05:19:37;14.25;;;3.33;;
23121;SDS011;11730;51.248;22.534;2024-01-27T05:22:04;10.07;;;3.63;;
23121;SDS011;11730;51.248;22.534;2024-01-27T05:24:31;8.77;;;3.42;;
23121;SDS011;11730;51.248;22.534;2024-01-27T05:26:58;11.93;;;3.78;;
23121;SDS011;11730;51.248;22.534;2024-01-27T05:29:27;9.68;;;3.72;;
23121;SDS011;11730;51.248;22.534;2024-01-27T05:31:54;8.57;;;4.13;;
23121;SDS011;11730;51.248;22.534;2024-01-27T05:34:21;15.30;;;3.45;;
23121;SDS011;11730;51.248;22.534;2024-01-27T05:36:49;13.75;;;4.13;;
23121;SDS011;11730;51.248;22.534;2024-01-27T05:39:16;18.15;;;4.38;;
23121;SDS011;11730;51.248;22.534;2024-01-27T05:41:43;12.95;;;3.78;;
23121;SDS011;11730;51.248;22.534;2024-01-27T05:44:10;9.68;;;3.38;;
23121;SDS011;11730;51.248;22.534;2024-01-27T05:46:37;18.83;;;4.53;;
23121;SDS011;11730;51.248;22.534;2024-01-27T05:49:04;10.20;;;4.32;;
23121;SDS011;11730;51.248;22.534;2024-01-27T05:51:32;17.17;;;4.15;;
23121;SDS011;11730;51.248;22.534;2024-01-27T05:54:00;12.43;;;4.22;;
23121;SDS011;11730;51.248;22.534;2024-01-27T05:56:27;10.38;;;3.53;;
23121;SDS011;11730;51.248;22.534;2024-01-27T05:58:54;10.40;;;3.90;;
23121;SDS011;11730;51.248;22.534;2024-01-27T06:01:21;12.02;;;4.13;;
23121;SDS011;11730;51.248;22.534;2024-01-27T06:03:48;10.10;;;4.68;;
23121;SDS011;11730;51.248;22.534;2024-01-27T06:06:15;10.48;;;3.85;;
23121;SDS011;11730;51.248;22.534;2024-01-27T06:08:43;12.88;;;4.13;;
23121;SDS011;11730;51.248;22.534;2024-01-27T06:11:10;10.50;;;4.38;;
23121;SDS011;11730;51.248;22.534;2024-01-27T06:13:37;12.65;;;4.25;;
23121;SDS011;11730;51.248;22.534;2024-01-27T06:16:06;14.75;;;4.00;;
23121;SDS011;11730;51.248;22.534;2024-01-27T06:18:35;9.02;;;4.10;;
23121;SDS011;11730;51.248;22.534;2024-01-27T06:21:02;15.43;;;4.53;;
23121;SDS011;11730;51.248;22.534;2024-01-27T06:23:32;16.15;;;4.47;;
23121;SDS011;11730;51.248;22.534;2024-01-27T06:25:59;11.68;;;4.38;;
23121;SDS011;11730;51.248;22.534;2024-01-27T06:28:30;18.85;;;4.53;;
23121;SDS011;11730;51.248;22.534;2024-01-27T06:30:57;17.38;;;4.10;;
23121;SDS011;11730;51.248;22.534;2024-01-27T06:33:24;17.17;;;4.00;;
23121;SDS011;11730;51.248;22.534;2024-01-27T06:35:52;17.38;;;4.38;;
23121;SDS011;11730;51.248;22.534;2024-01-27T06:38:19;9.90;;;3.85;;
23121;SDS011;11730;51.248;22.534;2024-01-27T06:40:46;15.90;;;4.30;;
23121;SDS011;11730;51.248;22.534;2024-01-27T06:43:14;23.98;;;6.07;;
23121;SDS011;11730;51.248;22.534;2024-01-27T06:45:41;10.57;;;4.15;;
23121;SDS011;11730;51.248;22.534;2024-01-27T06:48:08;17.85;;;4.85;;
23121;SDS011;11730;51.248;22.534;2024-01-27T06:50:35;15.05;;;3.95;;
23121;SDS011;11730;51.248;22.534;2024-01-27T06:53:02;16.80;;;4.82;;
23121;SDS011;11730;51.248;22.534;2024-01-27T06:55:29;20.60;;;4.40;;
23121;SDS011;11730;51.248;22.534;2024-01-27T06:57:56;14.63;;;5.18;;
23121;SDS011;11730;51.248;22.534;2024-01-27T07:00:23;16.83;;;5.05;;
23121;SDS011;11730;51.248;22.534;2024-01-27T07:02:51;10.32;;;4.13;;
23121;SDS011;11730;51.248;22.534;2024-01-27T07:05:18;17.50;;;4.72;;
23121;SDS011;11730;51.248;22.534;2024-01-27T07:07:45;14.45;;;4.57;;
23121;SDS011;11730;51.248;22.534;2024-01-27T07:10:12;15.85;;;4.68;;
23121;SDS011;11730;51.248;22.534;2024-01-27T07:12:39;10.88;;;4.78;;
23121;SDS011;11730;51.248;22.534;2024-01-27T07:15:06;15.90;;;5.13;;
23121;SDS011;11730;51.248;22.534;2024-01-27T07:17:34;13.70;;;4.20;;
23121;SDS011;11730;51.248;22.534;2024-01-27T07:20:02;17.48;;;5.03;;
23121;SDS011;11730;51.248;22.534;2024-01-27T07:22:29;21.38;;;4.63;;
23121;SDS011;11730;51.248;22.534;2024-01-27T07:24:57;13.63;;;4.22;;
23121;SDS011;11730;51.248;22.534;2024-01-27T07:27:23;15.38;;;4.63;;
23121;SDS011;11730;51.248;22.534;2024-01-27T07:29:50;8.80;;;4.43;;
23121;SDS011;11730;51.248;22.534;2024-01-27T07:32:18;17.13;;;4.57;;
23121;SDS011;11730;51.248;22.534;2024-01-27T07:34:45;15.30;;;4.70;;
23121;SDS011;11730;51.248;22.534;2024-01-27T07:37:12;18.05;;;4.63;;
23121;SDS011;11730;51.248;22.534;2024-01-27T07:39:40;13.43;;;4.45;;
23121;SDS011;11730;51.248;22.534;2024-01-27T07:42:06;20.15;;;4.32;;
23121;SDS011;11730;51.248;22.534;2024-01-27T07:44:33;14.32;;;5.03;;
23121;SDS011;11730;51.248;22.534;2024-01-27T07:47:00;16.80;;;4.80;;
23121;SDS011;11730;51.248;22.534;2024-01-27T07:49:27;17.35;;;4.55;;
23121;SDS011;11730;51.248;22.534;2024-01-27T07:51:55;14.65;;;5.18;;
23121;SDS011;11730;51.248;22.534;2024-01-27T07:54:22;15.13;;;4.47;;
23121;SDS011;11730;51.248;22.534;2024-01-27T07:56:49;9.98;;;5.68;;
23121;SDS011;11730;51.248;22.534;2024-01-27T07:59:17;14.82;;;5.05;;
23121;SDS011;11730;51.248;22.534;2024-01-27T08:01:44;13.45;;;4.22;;
23121;SDS011;11730;51.248;22.534;2024-01-27T08:04:12;13.43;;;4.97;;
23121;SDS011;11730;51.248;22.534;2024-01-27T08:06:46;21.60;;;5.22;;
23121;SDS011;11730;51.248;22.534;2024-01-27T08:09:14;19.92;;;4.97;;
23121;SDS011;11730;51.248;22.534;2024-01-27T08:11:42;17.30;;;4.72;;
23121;SDS011;11730;51.248;22.534;2024-01-27T08:14:09;11.75;;;4.32;;
23121;SDS011;11730;51.248;22.534;2024-01-27T08:16:37;15.30;;;6.13;;
23121;SDS011;11730;51.248;22.534;2024-01-27T08:19:04;13.85;;;4.05;;
23121;SDS011;11730;51.248;22.534;2024-01-27T08:21:31;20.15;;;4.78;;
23121;SDS011;11730;51.248;22.534;2024-01-27T08:23:58;12.45;;;4.82;;
23121;SDS011;11730;51.248;22.534;2024-01-27T08:26:26;18.33;;;4.28;;
23121;SDS011;11730;51.248;22.534;2024-01-27T08:28:53;11.40;;;4.75;;
23121;SDS011;11730;51.248;22.534;2024-01-27T08:31:22;14.05;;;4.40;;
23121;SDS011;11730;51.248;22.534;2024-01-27T08:33:49;16.13;;;4.38;;
23121;SDS011;11730;51.248;22.534;2024-01-27T08:36:17;15.30;;;4.43;;
23121;SDS011;11730;51.248;22.534;2024-01-27T08:38:44;13.73;;;5.20;;
23121;SDS011;11730;51.248;22.534;2024-01-27T08:41:12;16.20;;;5.20;;
23121;SDS011;11730;51.248;22.534;2024-01-27T08:43:39;15.57;;;5.05;;
23121;SDS011;11730;51.248;22.534;2024-01-27T08:46:07;19.58;;;6.82;;
23121;SDS011;11730;51.248;22.534;2024-01-27T08:48:38;13.05;;;4.93;;
23121;SDS011;11730;51.248;22.534;2024-01-27T08:51:09;17.00;;;6.40;;
23121;SDS011;11730;51.248;22.534;2024-01-27T08:53:38;14.40;;;5.90;;
23121;SDS011;11730;51.248;22.534;2024-01-27T08:56:05;19.02;;;6.28;;
23121;SDS011;11730;51.248;22.534;2024-01-27T08:58:32;10.43;;;4.72;;
23121;SDS011;11730;51.248;22.534;2024-01-27T09:00:59;10.95;;;5.07;;
23121;SDS011;11730;51.248;22.534;2024-01-27T09:03:32;17.20;;;6.27;;
23121;SDS011;11730;51.248;22.534;2024-01-27T09:05:58;20.67;;;6.10;;
23121;SDS011;11730;51.248;22.534;2024-01-27T09:08:25;14.63;;;5.95;;
23121;SDS011;11730;51.248;22.534;2024-01-27T09:10:53;13.98;;;6.53;;
23121;SDS011;11730;51.248;22.534;2024-01-27T09:13:20;16.83;;;5.25;;
23121;SDS011;11730;51.248;22.534;2024-01-27T09:15:47;20.05;;;6.03;;
23121;SDS011;11730;51.248;22.534;2024-01-27T09:18:15;17.88;;;6.35;;
23121;SDS011;11730;51.248;22.534;2024-01-27T09:20:43;15.73;;;5.57;;
23121;SDS011;11730;51.248;22.534;2024-01-27T09:23:10;14.13;;;6.10;;
23121;SDS011;11730;51.248;22.534;2024-01-27T09:25:38;13.85;;;6.45;;
23121;SDS011;11730;51.248;22.534;2024-01-27T09:28:05;16.67;;;6.35;;
23121;SDS011;11730;51.248;22.534;2024-01-27T09:30:33;18.17;;;6.90;;
23121;SDS011;11730;51.248;22.534;2024-01-27T09:33:04;16.00;;;6.50;;
23121;SDS011;11730;51.248;22.534;2024-01-27T09:35:32;13.93;;;6.20;;
23121;SDS011;11730;51.248;22.534;2024-01-27T09:37:59;18.38;;;5.32;;
23121;SDS011;11730;51.248;22.534;2024-01-27T09:40:26;13.00;;;5.78;;
23121;SDS011;11730;51.248;22.534;2024-01-27T09:42:53;13.50;;;4.95;;
23121;SDS011;11730;51.248;22.534;2024-01-27T09:45:25;14.90;;;6.60;;
23121;SDS011;11730;51.248;22.534;2024-01-27T09:47:52;14.35;;;4.82;;
23121;SDS011;11730;51.248;22.534;2024-01-27T09:50:22;10.77;;;5.03;;
23121;SDS011;11730;51.248;22.534;2024-01-27T09:52:50;11.90;;;5.65;;
23121;SDS011;11730;51.248;22.534;2024-01-27T09:55:17;13.60;;;4.32;;
23121;SDS011;11730;51.248;22.534;2024-01-27T09:57:44;9.90;;;5.63;;
23121;SDS011;11730;51.248;22.534;2024-01-27T10:00:12;12.77;;;5.47;;
23121;SDS011;11730;51.248;22.534;2024-01-27T10:02:40;14.48;;;5.45;;
23121;SDS011;11730;51.248;22.534;2024-01-27T10:05:08;8.90;;;5.22;;
23121;SDS011;11730;51.248;22.534;2024-01-27T10:07:36;9.00;;;4.53;;
23121;SDS011;11730;51.248;22.534;2024-01-27T10:10:03;10.18;;;5.35;;
23121;SDS011;11730;51.248;22.534;2024-01-27T10:12:32;12.65;;;5.53;;
23121;SDS011;11730;51.248;22.534;2024-01-27T10:14:59;10.77;;;5.05;;
23121;SDS011;11730;51.248;22.534;2024-01-27T10:17:27;14.63;;;5.15;;
23121;SDS011;11730;51.248;22.534;2024-01-27T10:20:03;12.63;;;5.88;;
23121;SDS011;11730;51.248;22.534;2024-01-27T10:22:36;10.98;;;5.13;;
23121;SDS011;11730;51.248;22.534;2024-01-27T10:25:05;14.75;;;5.65;;
23121;SDS011;11730;51.248;22.534;2024-01-27T10:27:33;11.32;;;5.47;;
23121;SDS011;11730;51.248;22.534;2024-01-27T10:30:01;11.55;;;4.78;;
23121;SDS011;11730;51.248;22.534;2024-01-27T10:32:28;14.35;;;5.25;;
23121;SDS011;11730;51.248;22.534;2024-01-27T10:35:02;10.98;;;5.60;;
23121;SDS011;11730;51.248;22.534;2024-01-27T10:37:30;9.95;;;5.85;;
23121;SDS011;11730;51.248;22.534;2024-01-27T10:40:01;9.02;;;5.43;;
23121;SDS011;11730;51.248;22.534;2024-01-27T10:42:34;18.77;;;6.05;;
23121;SDS011;11730;51.248;22.534;2024-01-27T10:45:03;15.05;;;6.75;;
23121;SDS011;11730;51.248;22.534;2024-01-27T10:47:31;10.30;;;5.85;;
23121;SDS011;11730;51.248;22.534;2024-01-27T10:50:00;19.48;;;6.35;;
23121;SDS011;11730;51.248;22.534;2024-01-27T10:52:28;11.38;;;5.68;;
23121;SDS011;11730;51.248;22.534;2024-01-27T10:54:57;8.57;;;5.00;;
23121;SDS011;11730;51.248;22.534;2024-01-27T10:57:30;9.57;;;5.57;;
23121;SDS011;11730;51.248;22.534;2024-01-27T10:59:57;10.85;;;5.57;;
23121;SDS011;11730;51.248;22.534;2024-01-27T11:02:28;14.27;;;5.78;;
23121;SDS011;11730;51.248;22.534;2024-01-27T11:04:58;22.13;;;6.33;;
23121;SDS011;11730;51.248;22.534;2024-01-27T11:07:30;10.93;;;5.70;;
23121;SDS011;11730;51.248;22.534;2024-01-27T11:10:00;16.40;;;6.47;;
23121;SDS011;11730;51.248;22.534;2024-01-27T11:12:28;13.48;;;5.30;;
23121;SDS011;11730;51.248;22.534;2024-01-27T11:14:56;16.40;;;5.95;;
23121;SDS011;11730;51.248;22.534;2024-01-27T11:17:25;9.73;;;4.93;;
23121;SDS011;11730;51.248;22.534;2024-01-27T11:19:52;13.90;;;5.68;;
23121;SDS011;11730;51.248;22.534;2024-01-27T11:22:24;14.23;;;6.20;;
23121;SDS011;11730;51.248;22.534;2024-01-27T11:27:35;8.85;;;4.88;;
23121;SDS011;11730;51.248;22.534;2024-01-27T11:30:03;13.15;;;6.22;;
23121;SDS011;11730;51.248;22.534;2024-01-27T11:32:30;12.35;;;5.80;;
23121;SDS011;11730;51.248;22.534;2024-01-27T11:35:00;16.25;;;6.82;;
23121;SDS011;11730;51.248;22.534;2024-01-27T11:37:30;6.63;;;4.57;;
23121;SDS011;11730;51.248;22.534;2024-01-27T11:40:04;12.38;;;6.00;;
23121;SDS011;11730;51.248;22.534;2024-01-27T11:42:34;13.73;;;6.25;;
23121;SDS011;11730;51.248;22.534;2024-01-27T11:45:02;10.93;;;5.90;;
23121;SDS011;11730;51.248;22.534;2024-01-27T11:47:30;13.77;;;6.97;;
23121;SDS011;11730;51.248;22.534;2024-01-27T11:49:58;9.85;;;6.22;;
23121;SDS011;11730;51.248;22.534;2024-01-27T11:52:25;13.50;;;6.07;;
23121;SDS011;11730;51.248;22.534;2024-01-27T11:57:23;12.75;;;6.38;;
23121;SDS011;11730;51.248;22.534;2024-01-27T11:59:50;11.75;;;5.35;;
23121;SDS011;11730;51.248;22.534;2024-01-27T12:02:18;8.15;;;5.25;;
23121;SDS011;11730;51.248;22.534;2024-01-27T12:04:47;12.27;;;5.93;;
23121;SDS011;11730;51.248;22.534;2024-01-27T12:07:14;12.38;;;6.60;;
23121;SDS011;11730;51.248;22.534;2024-01-27T12:09:42;13.90;;;5.78;;
23121;SDS011;11730;51.248;22.534;2024-01-27T12:12:10;16.30;;;6.70;;
23121;SDS011;11730;51.248;22.534;2024-01-27T12:14:45;10.05;;;6.38;;
23121;SDS011;11730;51.248;22.534;2024-01-27T12:17:16;10.32;;;6.10;;
23121;SDS011;11730;51.248;22.534;2024-01-27T12:19:51;15.85;;;6.35;;
23121;SDS011;11730;51.248;22.534;2024-01-27T12:22:25;12.80;;;6.05;;
23121;SDS011;11730;51.248;22.534;2024-01-27T12:24:59;8.68;;;5.75;;
23121;SDS011;11730;51.248;22.534;2024-01-27T12:27:39;10.45;;;6.13;;
23121;SDS011;11730;51.248;22.534;2024-01-27T12:30:06;11.23;;;6.50;;
23121;SDS011;11730;51.248;22.534;2024-01-27T12:32:34;12.85;;;6.43;;
23121;SDS011;11730;51.248;22.534;2024-01-27T12:35:07;10.32;;;6.15;;
23121;SDS011;11730;51.248;22.534;2024-01-27T12:37:35;10.95;;;5.65;;
23121;SDS011;11730;51.248;22.534;2024-01-27T12:40:25;10.43;;;6.25;;
23121;SDS011;11730;51.248;22.534;2024-01-27T12:42:51;9.40;;;5.43;;
23121;SDS011;11730;51.248;22.534;2024-01-27T12:45:18;14.02;;;6.68;;
23121;SDS011;11730;51.248;22.534;2024-01-27T12:47:46;12.63;;;5.80;;
23121;SDS011;11730;51.248;22.534;2024-01-27T12:50:14;12.25;;;6.05;;
23121;SDS011;11730;51.248;22.534;2024-01-27T12:52:43;11.65;;;6.75;;
23121;SDS011;11730;51.248;22.534;2024-01-27T12:55:10;10.68;;;6.47;;
23121;SDS011;11730;51.248;22.534;2024-01-27T12:57:37;11.65;;;6.78;;
23121;SDS011;11730;51.248;22.534;2024-01-27T13:00:07;14.07;;;6.82;;
23121;SDS011;11730;51.248;22.534;2024-01-27T13:02:36;13.48;;;6.88;;
23121;SDS011;11730;51.248;22.534;2024-01-27T13:05:04;12.00;;;6.38;;
23121;SDS011;11730;51.248;22.534;2024-01-27T13:07:31;10.93;;;7.35;;
23121;SDS011;11730;51.248;22.534;2024-01-27T13:09:59;9.85;;;6.45;;
23121;SDS011;11730;51.248;22.534;2024-01-27T13:12:26;11.68;;;7.10;;
23121;SDS011;11730;51.248;22.534;2024-01-27T13:14:54;14.48;;;7.13;;
23121;SDS011;11730;51.248;22.534;2024-01-27T13:17:22;14.95;;;8.05;;
23121;SDS011;11730;51.248;22.534;2024-01-27T13:19:49;16.17;;;7.55;;
23121;SDS011;11730;51.248;22.534;2024-01-27T13:22:17;16.92;;;9.13;;
23121;SDS011;11730;51.248;22.534;2024-01-27T13:24:46;13.27;;;7.05;;
23121;SDS011;11730;51.248;22.534;2024-01-27T13:27:14;8.27;;;6.57;;
23121;SDS011;11730;51.248;22.534;2024-01-27T13:29:41;11.43;;;6.97;;
23121;SDS011;11730;51.248;22.534;2024-01-27T13:32:08;12.57;;;7.13;;
23121;SDS011;11730;51.248;22.534;2024-01-27T13:34:35;11.63;;;6.85;;
23121;SDS011;11730;51.248;22.534;2024-01-27T13:37:03;12.23;;;7.45;;
23121;SDS011;11730;51.248;22.534;2024-01-27T13:39:30;14.18;;;7.80;;
23121;SDS011;11730;51.248;22.534;2024-01-27T13:41:58;14.05;;;8.15;;
23121;SDS011;11730;51.248;22.534;2024-01-27T13:44:26;14.77;;;8.65;;
23121;SDS011;11730;51.248;22.534;2024-01-27T13:46:53;16.67;;;7.63;;
23121;SDS011;11730;51.248;22.534;2024-01-27T13:49:26;14.75;;;9.02;;
23121;SDS011;11730;51.248;22.534;2024-01-27T13:51:53;15.40;;;8.68;;
23121;SDS011;11730;51.248;22.534;2024-01-27T13:54:21;14.10;;;8.40;;
23121;SDS011;11730;51.248;22.534;2024-01-27T13:56:48;15.65;;;9.27;;
23121;SDS011;11730;51.248;22.534;2024-01-27T13:59:15;17.35;;;8.93;;
23121;SDS011;11730;51.248;22.534;2024-01-27T14:01:43;13.70;;;9.27;;
23121;SDS011;11730;51.248;22.534;2024-01-27T14:04:10;13.77;;;8.43;;
23121;SDS011;11730;51.248;22.534;2024-01-27T14:06:38;14.23;;;7.70;;
23121;SDS011;11730;51.248;22.534;2024-01-27T14:09:05;12.43;;;7.60;;
23121;SDS011;11730;51.248;22.534;2024-01-27T14:11:34;13.43;;;7.22;;
23121;SDS011;11730;51.248;22.534;2024-01-27T14:14:01;12.38;;;7.10;;
23121;SDS011;11730;51.248;22.534;2024-01-27T14:16:28;18.42;;;7.88;;
23121;SDS011;11730;51.248;22.534;2024-01-27T14:18:55;11.75;;;7.47;;
23121;SDS011;11730;51.248;22.534;2024-01-27T14:21:23;12.57;;;8.25;;
23121;SDS011;11730;51.248;22.534;2024-01-27T14:23:51;14.60;;;7.65;;
23121;SDS011;11730;51.248;22.534;2024-01-27T14:26:23;16.65;;;8.20;;
23121;SDS011;11730;51.248;22.534;2024-01-27T14:28:50;14.93;;;8.30;;